Time;durP1;ratioP1;P1;durP2;ratioP2;P2;SDS_P1;SDS_P2;PMS_P1;PMS_P2;Temp;Humidity;BMP_temperature;BMP_pressure;BME280_temperature;BME280_humidity;BME280_pressure;Samples;Min_cycle;Max_cycle;Signal;HPM_P1;HPM_P2
2023/09/07 00:01:43;;;;;;;0.77;0.25;;;;;;;16.04;100.00;100517.53;4976183;28;20152;-89
2023/09/07 00:04:10;;;;;;;0.50;0.50;;;;;;;15.96;100.00;100505.06;4989313;28;20053;-89
2023/09/07 00:06:36;;;;;;;1.17;0.82;;;;;;;15.97;100.00;100512.25;4976952;28;20038;-88
2023/09/07 00:09:03;;;;;;;0.25;0.25;;;;;;;15.94;100.00;100518.75;4989262;28;20053;-88
2023/09/07 00:11:29;;;;;;;0.30;0.30;;;;;;;15.91;100.00;100511.28;4973854;28;20074;-89
2023/09/07 00:13:57;;;;;;;0.88;0.65;;;;;;;15.82;100.00;100515.59;4976629;28;20045;-88
2023/09/07 00:16:22;;;;;;;2.45;1.38;;;;;;;15.72;100.00;100510.44;4976162;28;20103;-89
2023/09/07 00:18:49;;;;;;;0.40;0.35;;;;;;;15.67;100.00;100499.84;4992220;28;20125;-89
2023/09/07 00:21:14;;;;;;;0.35;0.35;;;;;;;15.61;100.00;100510.84;4990642;28;20486;-89
2023/09/07 00:23:40;;;;;;;0.70;0.47;;;;;;;15.59;100.00;100513.34;4962627;28;20034;-89
2023/09/07 00:26:06;;;;;;;0.63;0.63;;;;;;;15.65;100.00;100514.28;4993890;28;20045;-88
2023/09/07 00:28:31;;;;;;;1.20;0.68;;;;;;;15.67;100.00;100517.41;4987755;28;20409;-88
2023/09/07 00:30:57;;;;;;;0.77;0.47;;;;;;;15.58;100.00;100514.59;4974506;28;20457;-90
2023/09/07 00:33:23;;;;;;;0.25;0.22;;;;;;;15.54;100.00;100513.94;4975240;28;20112;-89
2023/09/07 00:35:48;;;;;;;0.35;0.30;;;;;;;15.54;100.00;100518.75;4975439;28;20443;-89
2023/09/07 00:38:13;;;;;;;0.73;0.73;;;;;;;15.45;100.00;100507.53;4974970;28;20123;-89
2023/09/07 00:40:43;;;;;;;0.30;0.28;;;;;;;15.43;100.00;100521.16;4977336;28;20084;-89
2023/09/07 00:43:09;;;;;;;0.00;0.00;;;;;;;15.35;100.00;100509.47;4971944;28;20064;-89
2023/09/07 00:45:37;;;;;;;0.10;0.10;;;;;;;15.29;100.00;100514.09;5006147;28;20050;-89
2023/09/07 00:48:02;;;;;;;0.95;0.52;;;;;;;15.15;100.00;100514.66;4983409;28;20038;-89
2023/09/07 00:50:28;;;;;;;0.08;0.08;;;;;;;15.14;100.00;100507.50;4989520;28;20041;-89
2023/09/07 00:52:54;;;;;;;0.47;0.45;;;;;;;15.17;100.00;100517.75;4976846;28;20445;-89
2023/09/07 00:55:21;;;;;;;0.70;0.60;;;;;;;15.08;100.00;100512.13;4972688;28;20122;-89
2023/09/07 00:57:47;;;;;;;0.45;0.15;;;;;;;15.06;100.00;100522.97;4972083;28;20037;-89
2023/09/07 01:00:13;;;;;;;0.60;0.60;;;;;;;14.97;100.00;100508.94;4975560;28;20042;-87
2023/09/07 01:03:10;;;;;;;0.30;0.30;;;;;;;14.98;100.00;100521.69;5239267;23;20051;-85
2023/09/07 01:05:57;;;;;;;0.08;0.08;;;;;;;14.90;100.00;100515.56;4963879;28;20050;-92
2023/09/07 01:08:52;;;;;;;0.25;0.25;;;;;;;14.60;100.00;100491.91;4973358;28;20050;-93
2023/09/07 01:11:28;;;;;;;0.90;0.90;;;;;;;14.76;100.00;100516.84;4942026;28;20056;-92
2023/09/07 01:13:55;;;;;;;0.32;0.32;;;;;;;14.68;100.00;100515.56;4972390;28;20117;-92
2023/09/07 01:16:21;;;;;;;0.43;0.43;;;;;;;14.63;100.00;100527.31;4969459;28;20034;-93
2023/09/07 01:18:47;;;;;;;0.25;0.25;;;;;;;14.56;100.00;100516.38;4963722;28;20054;-93
2023/09/07 01:21:13;;;;;;;13.05;2.10;;;;;;;14.47;100.00;100513.53;4943539;28;20068;-89
2023/09/07 01:23:41;;;;;;;0.63;0.38;;;;;;;14.51;100.00;100519.78;4970649;28;20046;-90
2023/09/07 01:26:08;;;;;;;0.17;0.17;;;;;;;14.48;100.00;100517.88;4970526;28;20066;-90
2023/09/07 01:28:34;;;;;;;0.10;0.10;;;;;;;14.35;100.00;100506.00;4969097;28;20038;-89
2023/09/07 01:31:01;;;;;;;0.22;0.22;;;;;;;14.55;100.00;100512.06;4949410;28;20443;-90
2023/09/07 01:33:27;;;;;;;1.58;0.82;;;;;;;14.51;100.00;100508.63;4954171;28;20125;-90
2023/09/07 01:35:53;;;;;;;1.05;0.40;;;;;;;14.34;100.00;100482.06;4956013;28;20469;-91
2023/09/07 01:38:18;;;;;;;0.85;0.70;;;;;;;14.36;100.00;100482.41;4967577;28;20081;-90
2023/09/07 01:40:44;;;;;;;0.80;0.55;;;;;;;14.50;100.00;100512.63;4954770;28;20046;-90
2023/09/07 01:43:11;;;;;;;0.63;0.63;;;;;;;14.45;100.00;100507.63;4952620;28;20045;-89
2023/09/07 01:45:36;;;;;;;0.45;0.45;;;;;;;14.45;100.00;100516.78;4966548;28;20412;-90
2023/09/07 01:48:03;;;;;;;0.50;0.50;;;;;;;14.39;100.00;100504.66;4966169;28;20054;-90
2023/09/07 01:50:30;;;;;;;0.77;0.77;;;;;;;14.41;100.00;100509.75;4962300;28;20572;-92
2023/09/07 01:52:57;;;;;;;0.10;0.10;;;;;;;14.33;100.00;100505.63;4950956;28;20051;-93
2023/09/07 01:55:22;;;;;;;3.75;1.75;;;;;;;14.33;100.00;100522.38;4944065;28;20047;-92
2023/09/07 01:57:48;;;;;;;0.50;0.50;;;;;;;14.26;100.00;100506.66;4986395;28;20042;-91
2023/09/07 02:00:14;;;;;;;0.85;0.43;;;;;;;14.32;100.00;100509.63;4968934;28;20116;-93
2023/09/07 02:02:40;;;;;;;0.35;0.30;;;;;;;14.24;100.00;100500.72;4948992;28;20062;-92
2023/09/07 02:05:06;;;;;;;0.75;0.75;;;;;;;14.26;100.00;100503.88;4964907;28;20145;-92
2023/09/07 02:07:32;;;;;;;0.45;0.45;;;;;;;14.26;100.00;100506.66;4953440;28;20054;-91
2023/09/07 02:09:57;;;;;;;0.50;0.50;;;;;;;14.26;100.00;100506.66;4948801;28;20062;-92
2023/09/07 02:12:23;;;;;;;1.08;0.35;;;;;;;14.21;100.00;100500.84;4951182;28;20039;-92
2023/09/07 02:14:48;;;;;;;0.50;0.50;;;;;;;14.12;100.00;100493.19;4935658;28;20468;-92
2023/09/07 02:17:17;;;;;;;0.90;0.90;;;;;;;14.17;100.00;100503.00;4969071;28;20047;-92
2023/09/07 02:19:44;;;;;;;0.35;0.35;;;;;;;14.01;100.00;100468.44;4946460;28;20126;-92
2023/09/07 02:22:10;;;;;;;0.20;0.20;;;;;;;14.14;100.00;100509.47;4951282;28;20492;-92
2023/09/07 02:24:36;;;;;;;0.50;0.50;;;;;;;13.91;100.00;100503.03;4951864;28;20039;-93
2023/09/07 02:27:01;;;;;;;1.25;0.40;;;;;;;13.97;100.00;100504.03;4967121;28;20104;-92
2023/09/07 02:29:27;;;;;;;0.20;0.20;;;;;;;14.06;100.00;100511.72;4948245;28;20394;-92
2023/09/07 02:31:53;;;;;;;0.28;0.28;;;;;;;14.03;100.00;100507.06;4933739;28;20054;-93
2023/09/07 02:34:19;;;;;;;0.30;0.30;;;;;;;14.03;100.00;100507.81;4950317;28;20070;-92
2023/09/07 02:36:45;;;;;;;0.25;0.25;;;;;;;13.99;100.00;100509.94;4950451;28;20587;-91
2023/09/07 02:39:11;;;;;;;1.08;1.08;;;;;;;13.98;100.00;100491.66;4951681;28;20089;-92
2023/09/07 02:41:38;;;;;;;0.10;0.10;;;;;;;14.01;100.00;100512.28;4919710;28;20057;-92
2023/09/07 02:44:04;;;;;;;0.28;0.22;;;;;;;13.87;100.00;100485.63;4951201;28;20081;-92
2023/09/07 02:46:30;;;;;;;0.30;0.30;;;;;;;14.01;100.00;100503.91;4950216;28;20038;-91
2023/09/07 02:48:59;;;;;;;0.38;0.38;;;;;;;13.95;100.00;100498.13;4918007;28;20105;-92
2023/09/07 02:51:25;;;;;;;19.90;0.98;;;;;;;13.88;100.00;100495.56;4934259;28;20047;-92
2023/09/07 02:53:53;;;;;;;0.17;0.17;;;;;;;13.84;100.00;100492.13;4934663;28;20042;-91
2023/09/07 02:56:19;;;;;;;0.70;0.70;;;;;;;13.83;100.00;100501.72;4967673;28;20050;-93
2023/09/07 02:58:45;;;;;;;0.35;0.35;;;;;;;13.86;100.00;100506.41;4936035;28;20042;-92
2023/09/07 03:01:13;;;;;;;0.25;0.25;;;;;;;13.86;100.00;100505.63;4968843;28;20428;-92
2023/09/07 03:03:41;;;;;;;0.63;0.63;;;;;;;13.76;100.00;100501.94;4964033;28;20443;-91
2023/09/07 03:06:10;;;;;;;0.57;0.57;;;;;;;13.84;100.00;100514.44;4950920;28;20094;-92
2023/09/07 03:08:36;;;;;;;1.33;0.73;;;;;;;13.81;100.00;100508.97;4920409;28;20587;-92
2023/09/07 03:11:05;;;;;;;0.45;0.45;;;;;;;13.79;100.00;100509.41;4920200;28;20034;-93
2023/09/07 03:13:31;;;;;;;0.93;0.88;;;;;;;13.78;100.00;100504.28;4965134;28;20054;-91
2023/09/07 03:15:58;;;;;;;0.22;0.22;;;;;;;13.80;100.00;100512.97;4922610;28;20063;-92
2023/09/07 03:18:23;;;;;;;0.13;0.13;;;;;;;13.76;100.00;100515.09;4950165;28;20453;-92
2023/09/07 03:20:55;;;;;;;0.47;0.47;;;;;;;13.76;100.00;100507.53;4967220;28;20077;-91
2023/09/07 03:23:23;;;;;;;0.35;0.35;;;;;;;13.69;100.00;100512.53;4965060;28;20047;-92
2023/09/07 03:25:48;;;;;;;0.55;0.50;;;;;;;13.60;100.00;100496.50;4934643;28;20070;-92
2023/09/07 03:28:14;;;;;;;0.38;0.38;;;;;;;13.64;100.00;100505.53;4935265;28;20078;-92
2023/09/07 03:30:40;;;;;;;0.38;0.38;;;;;;;13.77;100.00;100514.66;4967758;28;20047;-92
2023/09/07 03:33:06;;;;;;;0.50;0.50;;;;;;;13.78;100.00;100521.81;4948350;28;20497;-92
2023/09/07 03:35:32;;;;;;;1.05;0.82;;;;;;;13.80;100.00;100526.91;4951906;28;20035;-91
2023/09/07 03:37:58;;;;;;;0.60;0.60;;;;;;;13.65;100.00;100507.09;4951183;28;20117;-93
2023/09/07 03:40:24;;;;;;;0.68;0.68;;;;;;;13.59;100.00;100497.72;4951766;28;20050;-91
2023/09/07 03:42:50;;;;;;;0.82;0.57;;;;;;;13.56;100.00;100493.03;4952631;28;20047;-93
2023/09/07 03:45:15;;;;;;;0.65;0.50;;;;;;;13.77;100.00;100519.47;4951141;28;20047;-92
2023/09/07 03:47:42;;;;;;;0.15;0.13;;;;;;;13.69;100.00;100524.47;4943870;28;20152;-92
2023/09/07 03:50:09;;;;;;;0.40;0.30;;;;;;;13.64;100.00;100515.88;4935143;28;20050;-91
2023/09/07 03:52:35;;;;;;;0.57;0.50;;;;;;;13.60;100.00;100507.63;4954258;28;20046;-93
2023/09/07 03:55:03;;;;;;;0.30;0.30;;;;;;;13.62;100.00;100519.13;4923478;28;20045;-92
2023/09/07 03:57:29;;;;;;;0.73;0.73;;;;;;;13.54;100.00;100507.44;4965694;28;20046;-93
2023/09/07 03:59:56;;;;;;;3.50;1.33;;;;;;;13.49;100.00;100504.41;4921362;28;20043;-93
2023/09/07 04:02:22;;;;;;;0.65;0.65;;;;;;;13.52;100.00;100526.59;4970654;28;20047;-92
2023/09/07 04:04:52;;;;;;;0.20;0.20;;;;;;;13.50;100.00;100528.28;4967077;28;20059;-93
2023/09/07 04:07:18;;;;;;;0.65;0.57;;;;;;;13.39;100.00;100523.00;4965338;28;20504;-92
2023/09/07 04:09:45;;;;;;;0.60;0.45;;;;;;;13.36;100.00;100523.91;4955183;28;20057;-93
2023/09/07 04:12:10;;;;;;;0.30;0.30;;;;;;;13.27;100.00;100520.22;4954657;28;20042;-92
2023/09/07 04:14:36;;;;;;;0.80;0.80;;;;;;;13.24;100.00;100526.66;4969565;28;20448;-92
2023/09/07 04:17:02;;;;;;;1.40;0.63;;;;;;;13.27;100.00;100528.56;4937624;28;20050;-92
2023/09/07 04:19:28;;;;;;;0.30;0.30;;;;;;;13.17;100.00;100521.31;4937639;28;20138;-92
2023/09/07 04:21:53;;;;;;;0.40;0.40;;;;;;;13.26;100.00;100535.38;4968536;28;20039;-93
2023/09/07 04:24:19;;;;;;;0.57;0.57;;;;;;;13.31;100.00;100543.16;4953788;28;20039;-92
2023/09/07 04:26:45;;;;;;;0.28;0.28;;;;;;;13.19;100.00;100513.28;4952271;28;20137;-93
2023/09/07 04:29:12;;;;;;;0.68;0.68;;;;;;;13.38;100.00;100537.41;4954026;28;20070;-93
2023/09/07 04:31:38;;;;;;;3.67;1.50;;;;;;;13.35;100.00;100530.69;4952496;28;20101;-91
2023/09/07 04:34:04;;;;;;;1.13;1.05;;;;;;;13.28;100.00;100527.34;4955253;28;20043;-92
2023/09/07 04:36:30;;;;;;;0.25;0.25;;;;;;;13.36;100.00;100537.84;4921953;28;20066;-93
2023/09/07 04:38:56;;;;;;;1.25;0.90;;;;;;;13.43;100.00;100545.19;4964439;28;20058;-93
2023/09/07 04:41:21;;;;;;;1.80;1.70;;;;;;;13.32;100.00;100516.88;4946471;28;20073;-91
2023/09/07 04:43:47;;;;;;;1.48;1.25;;;;;;;13.37;100.00;100541.41;4959927;28;20047;-91
2023/09/07 04:46:15;;;;;;;0.20;0.20;;;;;;;13.46;100.00;100547.13;4941697;28;20134;-93
2023/09/07 04:48:41;;;;;;;0.63;0.63;;;;;;;13.45;100.00;100537.19;4950690;28;20122;-92
2023/09/07 04:51:08;;;;;;;1.00;0.80;;;;;;;13.45;100.00;100537.19;4969011;28;20039;-93
2023/09/07 04:53:36;;;;;;;0.80;0.77;;;;;;;13.37;100.00;100519.13;4944091;28;20035;-92
2023/09/07 04:56:02;;;;;;;0.32;0.30;;;;;;;13.65;100.00;100557.25;4959449;28;20049;-92
2023/09/07 04:58:28;;;;;;;0.98;0.88;;;;;;;13.70;100.00;100562.28;4947107;28;20489;-92
2023/09/07 05:00:54;;;;;;;1.58;1.35;;;;;;;13.68;100.00;100550.78;4915121;28;20591;-92
2023/09/07 05:03:22;;;;;;;1.10;1.00;;;;;;;13.68;100.00;100548.00;4959902;28;20500;-92
2023/09/07 05:05:53;;;;;;;0.38;0.35;;;;;;;13.78;100.00;100558.06;4930050;28;20089;-93
2023/09/07 05:08:18;;;;;;;0.50;0.50;;;;;;;13.79;100.00;100551.22;4932473;28;20447;-93
2023/09/07 05:10:44;;;;;;;0.70;0.43;;;;;;;13.90;100.00;100554.47;4946764;28;20034;-93
2023/09/07 05:13:10;;;;;;;1.08;0.63;;;;;;;13.89;100.00;100538.97;4933563;28;20035;-93
2023/09/07 05:15:35;;;;;;;0.30;0.30;;;;;;;14.03;100.00;100557.25;4965476;28;20408;-93
2023/09/07 05:18:01;;;;;;;1.27;1.17;;;;;;;14.12;100.00;100557.34;4965169;28;20047;-92
2023/09/07 05:20:30;;;;;;;5.93;0.47;;;;;;;14.07;100.00;100551.56;4950443;28;20050;-93
2023/09/07 05:22:56;;;;;;;0.75;0.75;;;;;;;14.23;100.00;100573.75;4948728;28;20485;-93
2023/09/07 05:25:22;;;;;;;0.73;0.60;;;;;;;14.23;100.00;100557.00;4953802;28;20031;-92
2023/09/07 05:27:48;;;;;;;0.60;0.55;;;;;;;14.35;100.00;100564.59;4966081;28;20051;-93
2023/09/07 05:30:14;;;;;;;0.40;0.40;;;;;;;14.35;100.00;100547.84;4958905;28;20030;-94
2023/09/07 05:32:41;;;;;;;0.65;0.65;;;;;;;14.53;100.00;100534.06;4960234;28;20051;-93
2023/09/07 05:35:07;;;;;;;0.20;0.17;;;;;;;14.97;100.00;100582.34;4946180;28;20744;-93
2023/09/07 05:37:33;;;;;;;0.68;0.68;;;;;;;15.04;100.00;100553.41;4934806;28;20125;-93
2023/09/07 05:39:58;;;;;;;0.77;0.77;;;;;;;15.38;100.00;100575.66;4943735;28;20511;-93
2023/09/07 05:42:25;;;;;;;0.75;0.68;;;;;;;15.50;100.00;100563.63;4929900;28;20042;-92
2023/09/07 05:44:51;;;;;;;2.05;1.27;;;;;;;15.67;100.00;100548.19;4965582;28;20061;-93
2023/09/07 05:47:17;;;;;;;0.95;0.70;;;;;;;16.22;100.00;100587.53;4936796;28;20074;-93
2023/09/07 05:49:43;;;;;;;1.15;1.05;;;;;;;16.45;100.00;100575.78;4965864;28;20405;-94
2023/09/07 05:52:08;;;;;;;1.15;1.05;;;;;;;16.66;100.00;100558.06;4947502;28;20062;-94
2023/09/07 05:54:34;;;;;;;0.82;0.63;;;;;;;17.16;100.00;100567.09;4953094;28;20038;-94
2023/09/07 05:56:59;;;;;;;0.77;0.77;;;;;;;17.54;100.00;100570.13;4935414;28;20089;-94
2023/09/07 05:59:25;;;;;;;1.42;1.17;;;;;;;17.79;100.00;100556.97;4949800;28;20155;-94
2023/09/07 06:01:51;;;;;;;0.60;0.43;;;;;;;18.14;100.00;100577.69;4963512;28;20050;-92
2023/09/07 06:04:16;;;;;;;0.20;0.20;;;;;;;18.36;100.00;100580.97;4968692;28;20044;-93
2023/09/07 06:06:42;;;;;;;0.60;0.60;;;;;;;18.54;100.00;100582.94;4968464;28;20047;-93
2023/09/07 06:09:08;;;;;;;0.77;0.57;;;;;;;18.83;100.00;100582.25;4938504;28;20501;-94
2023/09/07 06:11:34;;;;;;;1.25;1.13;;;;;;;19.03;100.00;100602.84;4938558;28;20409;-96
2023/09/07 06:14:02;;;;;;;0.60;0.60;;;;;;;19.18;100.00;100597.25;4953625;28;20042;-94
2023/09/07 06:16:28;;;;;;;1.05;0.85;;;;;;;19.44;100.00;100598.28;4922501;28;20504;-95
2023/09/07 06:18:55;;;;;;;2.05;0.73;;;;;;;19.67;100.00;100598.66;4937713;28;20046;-94
2023/09/07 06:21:21;;;;;;;0.85;0.75;;;;;;;19.91;100.00;100588.03;4950262;28;20363;-93
2023/09/07 06:23:47;;;;;;;2.10;0.90;;;;;;;20.14;100.00;100598.38;4938531;28;20066;-95
2023/09/07 06:26:14;;;;;;;1.15;1.05;;;;;;;20.44;100.00;100593.47;4951621;28;20121;-94
2023/09/07 06:28:40;;;;;;;1.08;0.98;;;;;;;20.72;100.00;100607.91;4938289;28;20053;-96
2023/09/07 06:31:05;;;;;;;1.92;1.83;;;;;;;20.90;100.00;100604.81;4971057;28;20470;-96
2023/09/07 06:33:31;;;;;;;0.40;0.40;;;;;;;20.91;100.00;100601.50;4938644;28;20046;-96
2023/09/07 06:36:01;;;;;;;1.00;0.75;;;;;;;21.12;99.68;100605.09;4933195;29;20039;-96
2023/09/07 06:38:27;;;;;;;0.63;0.63;;;;;;;21.38;96.57;100611.53;4937473;28;20088;-96
2023/09/07 06:40:52;;;;;;;0.85;0.82;;;;;;;21.44;95.54;100613.63;4940004;28;20047;-96
2023/09/07 06:43:19;;;;;;;0.63;0.60;;;;;;;21.65;95.50;100610.25;4956078;28;20138;-96
2023/09/07 06:45:46;;;;;;;0.88;0.88;;;;;;;21.92;94.01;100616.66;4954077;28;20556;-96
2023/09/07 06:48:13;;;;;;;1.50;1.17;;;;;;;22.11;91.99;100598.06;4970210;28;20031;-95
2023/09/07 06:50:39;;;;;;;0.73;0.73;;;;;;;22.30;88.31;100602.81;4917606;29;20378;-96
2023/09/07 06:53:04;;;;;;;1.70;0.95;;;;;;;22.48;81.40;100609.34;4942929;28;20065;-95
2023/09/07 06:55:30;;;;;;;1.15;0.85;;;;;;;22.75;81.60;100617.19;4970375;28;20463;-96
2023/09/07 06:57:56;;;;;;;0.75;0.75;;;;;;;22.78;76.62;100596.38;4954769;28;20039;-94
2023/09/07 07:00:21;;;;;;;1.13;1.08;;;;;;;22.77;73.36;100606.91;4936739;28;20169;-96
2023/09/07 07:02:48;;;;;;;0.95;0.70;;;;;;;23.12;73.44;100603.72;4923033;28;20408;-96
2023/09/07 07:05:13;;;;;;;3.67;1.02;;;;;;;23.10;72.27;100589.28;4954446;28;20046;-95
2023/09/07 07:07:40;;;;;;;0.50;0.50;;;;;;;23.50;73.93;100604.31;4969641;28;20043;-94
2023/09/07 07:10:07;;;;;;;0.63;0.63;;;;;;;23.56;73.45;100610.75;4970622;28;20034;-95
2023/09/07 07:12:38;;;;;;;1.25;1.10;;;;;;;23.82;70.80;100619.78;4940646;28;20505;-95
2023/09/07 07:15:05;;;;;;;1.60;0.60;;;;;;;23.84;70.29;100622.88;4960534;28;20083;-95
2023/09/07 07:17:31;;;;;;;0.65;0.60;;;;;;;23.93;65.62;100624.69;4950120;28;20027;-96
2023/09/07 07:19:57;;;;;;;0.50;0.50;;;;;;;24.17;63.95;100615.66;4951778;28;20141;-95
2023/09/07 07:22:23;;;;;;;0.73;0.63;;;;;;;24.53;63.02;100620.22;4950448;28;20129;-95
2023/09/07 07:24:49;;;;;;;0.43;0.43;;;;;;;24.60;59.63;100619.69;4939498;28;20035;-94
2023/09/07 07:27:15;;;;;;;1.63;1.27;;;;;;;24.76;59.21;100618.06;4941447;28;20042;-96
2023/09/07 07:29:41;;;;;;;0.70;0.70;;;;;;;24.67;60.44;100604.97;4923100;28;20046;-95
2023/09/07 07:32:07;;;;;;;0.52;0.52;;;;;;;25.02;56.71;100618.53;4941123;28;20050;-94
2023/09/07 07:34:32;;;;;;;0.73;0.68;;;;;;;24.99;55.50;100628.84;4924272;28;20133;-95
2023/09/07 07:36:58;;;;;;;0.68;0.68;;;;;;;25.03;56.26;100617.97;4937015;28;20065;-95
2023/09/07 07:39:24;;;;;;;0.55;0.55;;;;;;;24.98;57.39;100615.97;4954184;28;20181;-96
2023/09/07 07:41:50;;;;;;;1.10;0.65;;;;;;;25.13;54.40;100634.72;4954321;28;20038;-95
2023/09/07 07:44:17;;;;;;;0.45;0.45;;;;;;;25.43;50.05;100639.19;4941108;28;20117;-96
2023/09/07 07:46:42;;;;;;;1.75;0.90;;;;;;;25.52;49.27;100601.97;4939449;28;20578;-95
2023/09/07 07:49:09;;;;;;;1.45;1.02;;;;;;;25.65;47.55;100621.25;4939460;28;20588;-94
2023/09/07 07:51:35;;;;;;;0.82;0.82;;;;;;;25.81;47.46;100628.09;4924526;28;20523;-96
2023/09/07 07:54:01;;;;;;;0.60;0.60;;;;;;;25.77;47.00;100619.84;4956683;28;20039;-96
2023/09/07 07:56:26;;;;;;;0.40;0.40;;;;;;;25.96;46.15;100639.88;4956757;28;20516;-94
2023/09/07 07:58:54;;;;;;;0.95;0.90;;;;;;;25.88;46.56;100628.28;4956177;28;20061;-95
2023/09/07 08:01:20;;;;;;;0.47;0.47;;;;;;;26.06;45.02;100634.59;4956504;28;20097;-96
2023/09/07 08:03:47;;;;;;;0.55;0.55;;;;;;;25.43;45.47;100627.06;4944289;28;20047;-96
2023/09/07 08:06:13;;;;;;;1.55;1.35;;;;;;;25.26;46.75;100629.22;4956695;28;20476;-95
2023/09/07 08:08:39;;;;;;;3.20;0.98;;;;;;;25.51;46.40;100634.50;4970538;28;20070;-96
2023/09/07 08:11:05;;;;;;;0.88;0.88;;;;;;;25.52;47.98;100646.59;4970630;28;20039;-96
2023/09/07 08:13:36;;;;;;;0.25;0.25;;;;;;;25.59;46.07;100648.94;4956882;28;20390;-96
2023/09/07 08:16:04;;;;;;;0.45;0.45;;;;;;;25.68;47.02;100620.19;4955195;28;20500;-94
2023/09/07 08:18:32;;;;;;;0.75;0.75;;;;;;;25.82;46.63;100641.78;4940789;28;20047;-95
2023/09/07 08:20:58;;;;;;;0.70;0.68;;;;;;;25.85;46.06;100611.53;4954222;28;20157;-95
2023/09/07 08:23:23;;;;;;;0.20;0.20;;;;;;;26.36;44.52;100638.22;4942606;28;20680;-94
2023/09/07 08:25:54;;;;;;;0.85;0.85;;;;;;;26.58;45.08;100640.81;4938474;28;20042;-96
2023/09/07 08:28:22;;;;;;;0.60;0.55;;;;;;;26.44;43.61;100617.19;4940268;28;20046;-95
2023/09/07 08:30:53;;;;;;;1.85;1.42;;;;;;;26.74;43.67;100639.88;4956035;28;20034;-95
2023/09/07 08:33:22;;;;;;;0.63;0.55;;;;;;;26.74;42.31;100628.47;4940346;28;20042;-96
2023/09/07 08:35:52;;;;;;;0.85;0.77;;;;;;;26.65;42.99;100636.63;4938888;28;20460;-95
2023/09/07 08:38:22;;;;;;;1.15;0.57;;;;;;;27.08;43.87;100623.19;4939539;28;20046;-96
2023/09/07 08:40:48;;;;;;;0.77;0.45;;;;;;;27.46;42.80;100637.41;4954324;28;20050;-95
2023/09/07 08:43:14;;;;;;;0.47;0.47;;;;;;;27.60;41.63;100639.03;4946469;28;20042;-96
2023/09/07 08:45:43;;;;;;;0.93;0.70;;;;;;;27.62;40.91;100642.84;4965365;28;20037;-95
2023/09/07 08:48:10;;;;;;;0.30;0.30;;;;;;;28.02;41.95;100634.47;4959755;28;20027;-96
2023/09/07 08:50:38;;;;;;;0.82;0.70;;;;;;;27.59;40.82;100620.38;4966499;28;20062;-96
2023/09/07 08:53:03;;;;;;;0.68;0.68;;;;;;;27.66;41.85;100629.06;4950883;28;20425;-95
2023/09/07 08:55:29;;;;;;;1.85;1.13;;;;;;;27.36;43.56;100634.16;4951700;29;20493;-96
2023/09/07 08:57:54;;;;;;;1.90;0.63;;;;;;;27.32;42.50;100625.16;4952183;28;20031;-96
2023/09/07 09:00:20;;;;;;;0.57;0.57;;;;;;;27.35;41.66;100618.38;4948482;28;20054;-96
2023/09/07 09:02:47;;;;;;;1.20;1.10;;;;;;;27.51;40.65;100637.34;4948203;28;20047;-91
2023/09/07 09:05:14;;;;;;;2.03;0.82;;;;;;;27.30;40.86;100622.06;4962411;28;20057;-96
2023/09/07 09:07:40;;;;;;;1.20;0.75;;;;;;;27.69;40.84;100616.59;4954537;28;20047;-96
2023/09/07 09:10:07;;;;;;;0.80;0.70;;;;;;;28.33;41.00;100630.03;4927712;28;20045;-96
2023/09/07 09:12:33;;;;;;;0.22;0.22;;;;;;;28.30;40.59;100614.03;4939718;28;20047;-95
2023/09/07 09:15:03;;;;;;;0.47;0.47;;;;;;;28.75;40.49;100619.66;4952428;28;20046;-96
2023/09/07 09:17:29;;;;;;;0.50;0.50;;;;;;;28.88;40.46;100628.19;4963021;28;20046;-96
2023/09/07 09:19:54;;;;;;;1.30;0.75;;;;;;;28.47;40.41;100615.22;4939156;28;20039;-96
2023/09/07 09:22:20;;;;;;;0.40;0.40;;;;;;;28.62;41.72;100618.31;4938422;28;20046;-96
2023/09/07 09:24:48;;;;;;;0.57;0.57;;;;;;;28.86;40.90;100616.56;4923455;28;20045;-96
2023/09/07 09:27:14;;;;;;;1.67;1.00;;;;;;;28.89;41.39;100619.09;4971859;28;20078;-95
2023/09/07 09:29:39;;;;;;;2.00;1.23;;;;;;;28.97;41.25;100614.25;4955166;28;20132;-93
2023/09/07 09:32:06;;;;;;;0.85;0.85;;;;;;;28.89;41.37;100610.53;4955130;28;20178;-96
2023/09/07 09:34:36;;;;;;;0.82;0.82;;;;;;;29.27;40.27;100621.66;4954700;28;20054;-95
2023/09/07 09:37:03;;;;;;;1.40;0.95;;;;;;;29.31;39.50;100631.44;4938399;28;20057;-96
2023/09/07 09:39:29;;;;;;;1.50;0.82;;;;;;;29.08;39.57;100625.41;4923592;28;20055;-96
2023/09/07 09:41:55;;;;;;;1.35;0.85;;;;;;;29.14;39.89;100605.31;4952178;29;20099;-96
2023/09/07 09:44:25;;;;;;;0.43;0.40;;;;;;;28.95;39.41;100618.97;4954540;28;20054;-95
2023/09/07 09:46:53;;;;;;;0.45;0.40;;;;;;;28.51;39.50;100612.81;4970848;28;20043;-95
2023/09/07 09:49:20;;;;;;;2.45;1.08;;;;;;;28.51;39.93;100618.53;4938190;28;20090;-95
2023/09/07 09:51:48;;;;;;;0.57;0.57;;;;;;;28.59;40.65;100613.69;4954730;28;20034;-95
2023/09/07 09:54:14;;;;;;;0.30;0.30;;;;;;;28.67;40.03;100623.13;4955029;28;20078;-94
2023/09/07 09:56:39;;;;;;;0.75;0.70;;;;;;;28.86;40.73;100622.28;4955093;28;20403;-94
2023/09/07 09:59:05;;;;;;;0.40;0.40;;;;;;;28.74;39.38;100604.63;4970889;28;20505;-94
2023/09/07 10:01:37;;;;;;;1.25;1.15;;;;;;;29.21;38.71;100598.91;4939044;28;20576;-94
2023/09/07 10:04:04;;;;;;;0.70;0.70;;;;;;;28.99;38.52;100610.84;4916493;29;20047;-96
2023/09/07 10:06:32;;;;;;;0.88;0.88;;;;;;;29.09;38.68;100603.34;4918107;29;20101;-96
2023/09/07 10:09:06;;;;;;;1.13;1.05;;;;;;;29.16;37.10;100614.09;4913607;29;20040;-94
2023/09/07 10:11:39;;;;;;;1.23;1.08;;;;;;;29.17;38.04;100598.47;4930490;29;20138;-94
2023/09/07 10:14:06;;;;;;;1.58;1.48;;;;;;;29.28;38.12;100595.41;4899363;29;20039;-94
2023/09/07 10:16:48;;;;;;;1.27;0.85;;;;;;;29.87;37.62;100596.59;4933548;29;20603;-95
2023/09/07 10:19:18;;;;;;;0.40;0.40;;;;;;;30.10;36.25;100608.22;4903974;29;20082;-92
2023/09/07 10:21:44;;;;;;;0.75;0.75;;;;;;;29.85;36.52;100592.72;4923575;29;20039;-95
2023/09/07 10:24:09;;;;;;;0.73;0.73;;;;;;;30.18;37.17;100597.59;4926650;29;20067;-95
2023/09/07 10:26:35;;;;;;;1.23;1.13;;;;;;;29.74;36.12;100593.78;4914314;29;20047;-94
2023/09/07 10:29:03;;;;;;;0.40;0.40;;;;;;;29.02;37.47;100590.50;4945611;29;20564;-96
2023/09/07 10:31:30;;;;;;;0.75;0.75;;;;;;;29.04;37.83;100607.84;4916000;29;20055;-93
2023/09/07 10:33:56;;;;;;;0.68;0.68;;;;;;;29.28;37.54;100603.97;4915108;29;20519;-93
2023/09/07 10:36:27;;;;;;;0.40;0.40;;;;;;;28.88;37.09;100573.94;4946301;29;20453;-96
2023/09/07 10:38:55;;;;;;;0.97;0.97;;;;;;;29.14;37.96;100591.03;4934142;29;20050;-95
2023/09/07 10:41:20;;;;;;;0.55;0.50;;;;;;;29.16;38.52;100591.22;4923769;29;20054;-96
2023/09/07 10:43:48;;;;;;;0.70;0.70;;;;;;;29.21;37.50;100581.78;4941912;29;20048;-95
2023/09/07 10:46:14;;;;;;;0.43;0.43;;;;;;;29.39;36.91;100583.72;4944175;28;20060;-96
2023/09/07 10:48:40;;;;;;;0.75;0.75;;;;;;;29.26;35.95;100580.09;4910967;29;20506;-95
2023/09/07 10:51:06;;;;;;;0.95;0.95;;;;;;;28.61;36.67;100582.53;4873706;29;20059;-95
2023/09/07 10:53:32;;;;;;;0.47;0.47;;;;;;;28.63;36.24;100562.75;4902218;29;20028;-94
2023/09/07 10:56:04;;;;;;;0.50;0.50;;;;;;;28.45;36.64;100585.72;4916907;29;20486;-94
2023/09/07 10:58:32;;;;;;;0.20;0.20;;;;;;;28.58;36.96;100571.44;4939220;29;20090;-96
2023/09/07 11:00:58;;;;;;;0.82;0.65;;;;;;;28.77;36.65;100574.19;4917624;29;20048;-95
2023/09/07 11:03:28;;;;;;;2.38;1.10;;;;;;;29.15;36.74;100572.56;4934790;29;20375;-96
2023/09/07 11:06:19;;;;;;;1.27;0.77;;;;;;;29.43;35.77;100572.72;4918636;29;20043;-95
2023/09/07 11:08:45;;;;;;;0.32;0.30;;;;;;;29.55;35.24;100564.63;4933963;29;20510;-95
2023/09/07 11:11:12;;;;;;;1.33;1.23;;;;;;;28.69;35.80;100563.44;4931164;29;20046;-94
2023/09/07 11:13:38;;;;;;;0.70;0.68;;;;;;;28.60;35.64;100569.56;4921459;29;20035;-95
2023/09/07 11:16:07;;;;;;;0.57;0.57;;;;;;;28.40;36.82;100555.97;4936908;29;20041;-94
2023/09/07 11:18:35;;;;;;;0.80;0.60;;;;;;;28.78;37.01;100564.31;4920194;29;20039;-94